createdAt,value
2018-05-09T00:00:47.999Z,18.21
2018-05-09T00:03:21.579Z,18.26
2018-05-09T00:05:55.205Z,18.16
2018-05-09T00:08:28.822Z,18.11
2018-05-09T00:11:02.384Z,18.04
2018-05-09T00:13:36.035Z,18.07
2018-05-09T00:16:09.792Z,18.17
2018-05-09T00:18:43.440Z,18.14
2018-05-09T00:21:17.000Z,18.18
2018-05-09T00:23:50.500Z,18.09
2018-05-09T00:26:24.239Z,18.17
2018-05-09T00:28:57.808Z,18.16
2018-05-09T00:31:31.420Z,18.11
2018-05-09T00:34:05.147Z,18.09
2018-05-09T00:36:38.736Z,18.12
2018-05-09T00:39:12.321Z,18.13
2018-05-09T00:41:46.162Z,18.11
2018-05-09T00:44:19.644Z,18.10
2018-05-09T00:46:53.315Z,18.03
2018-05-09T00:49:27.168Z,18.07
2018-05-09T00:52:00.907Z,17.99
2018-05-09T00:54:34.447Z,18.05
2018-05-09T00:57:07.979Z,17.99
2018-05-09T00:59:41.728Z,17.93
2018-05-09T01:02:15.233Z,17.86
2018-05-09T01:04:48.939Z,17.88
2018-05-09T01:07:22.443Z,17.83
2018-05-09T01:09:56.232Z,17.80
2018-05-09T01:12:29.771Z,17.88
2018-05-09T01:15:03.376Z,17.98
2018-05-09T01:17:36.934Z,18.02
2018-05-09T01:20:10.739Z,17.99
2018-05-09T01:22:44.312Z,18.00
2018-05-09T01:25:18.038Z,17.97
2018-05-09T01:27:51.527Z,17.88
2018-05-09T01:30:25.113Z,17.83
2018-05-09T01:32:58.847Z,17.81
2018-05-09T01:35:32.623Z,17.76
2018-05-09T01:38:06.302Z,17.74
2018-05-09T01:40:39.959Z,17.82
2018-05-09T01:43:13.464Z,17.74
2018-05-09T01:45:47.260Z,17.73
2018-05-09T01:48:20.921Z,17.67
2018-05-09T01:50:54.568Z,17.66
2018-05-09T01:53:28.102Z,17.65
2018-05-09T01:56:01.900Z,17.74
2018-05-09T01:58:35.460Z,17.67
2018-05-09T02:01:09.175Z,17.52
2018-05-09T02:03:42.980Z,17.53
2018-05-09T02:06:16.612Z,17.55
2018-05-09T02:08:50.087Z,17.45
2018-05-09T02:11:24.003Z,17.42
2018-05-09T02:13:57.596Z,17.54
2018-05-09T02:16:31.420Z,17.58
2018-05-09T02:19:05.203Z,17.62
2018-05-09T02:21:39.323Z,17.54
2018-05-09T02:24:13.032Z,17.56
2018-05-09T02:26:46.820Z,17.60
2018-05-09T02:29:20.388Z,17.55
2018-05-09T02:31:54.164Z,17.53
2018-05-09T02:34:27.836Z,17.60
2018-05-09T02:37:01.401Z,17.57
2018-05-09T02:39:35.175Z,17.44
2018-05-09T02:42:08.733Z,17.47
2018-05-09T02:44:42.256Z,17.43
2018-05-09T02:47:15.988Z,17.37
2018-05-09T02:49:49.586Z,17.33
2018-05-09T02:52:23.182Z,17.26
2018-05-09T02:54:56.772Z,17.26
2018-05-09T02:57:30.577Z,17.26
2018-05-09T03:00:04.142Z,17.20
2018-05-09T03:02:37.916Z,17.16
2018-05-09T03:05:11.508Z,17.16
2018-05-09T03:07:45.232Z,17.14
2018-05-09T03:10:18.843Z,17.17
2018-05-09T03:12:52.537Z,17.17
2018-05-09T03:15:26.073Z,17.10
2018-05-09T03:17:59.848Z,17.28
2018-05-09T03:20:33.428Z,17.23
2018-05-09T03:23:07.057Z,17.19
2018-05-09T03:25:40.563Z,17.09
2018-05-09T03:28:14.088Z,17.19
2018-05-09T03:30:47.806Z,17.18
2018-05-09T03:33:21.394Z,17.17
2018-05-09T03:35:54.860Z,17.15
2018-05-09T03:38:28.440Z,17.11
2018-05-09T03:41:02.028Z,17.09
2018-05-09T03:43:35.672Z,17.03
2018-05-09T03:46:09.204Z,17.02
2018-05-09T03:48:42.763Z,17.05
2018-05-09T03:51:16.390Z,17.18
2018-05-09T03:53:50.012Z,17.27
2018-05-09T03:56:23.611Z,17.19
2018-05-09T03:58:57.180Z,17.25
2018-05-09T04:01:42.528Z,17.20
2018-05-09T04:04:28.174Z,17.05
2018-05-09T04:07:13.738Z,16.99
2018-05-09T04:10:02.439Z,16.97
2018-05-09T04:12:36.883Z,17.08
2018-05-09T04:15:10.455Z,17.16
2018-05-09T04:17:43.986Z,17.20
2018-05-09T04:20:17.674Z,17.34
2018-05-09T04:22:51.570Z,17.52
2018-05-09T04:25:25.186Z,17.52
2018-05-09T04:27:58.961Z,17.57
2018-05-09T04:30:32.529Z,17.46
2018-05-09T04:33:06.035Z,17.44
2018-05-09T04:35:39.763Z,17.55
2018-05-09T04:38:13.255Z,17.52
2018-05-09T04:40:46.741Z,17.63
2018-05-09T04:43:20.294Z,17.69
2018-05-09T04:45:53.834Z,17.67
2018-05-09T04:48:27.404Z,17.65
2018-05-09T04:51:01.028Z,17.73
2018-05-09T04:53:34.587Z,17.68
2018-05-09T04:56:08.141Z,17.77
2018-05-09T04:58:41.637Z,17.82
2018-05-09T05:01:15.228Z,17.91
2018-05-09T05:03:48.961Z,17.92
2018-05-09T05:06:22.595Z,17.96
2018-05-09T05:08:56.124Z,17.97
2018-05-09T05:11:29.847Z,17.99
2018-05-09T05:14:03.699Z,18.11
2018-05-09T05:16:37.421Z,18.22
2018-05-09T05:19:11.016Z,18.33
2018-05-09T05:21:44.665Z,18.35
2018-05-09T05:24:18.524Z,18.31
2018-05-09T05:26:52.023Z,18.48
2018-05-09T05:29:25.676Z,18.63
2018-05-09T05:31:59.456Z,18.78
2018-05-09T05:34:33.340Z,18.80
2018-05-09T05:37:07.057Z,18.90
2018-05-09T05:39:40.823Z,18.94
2018-05-09T05:42:14.392Z,19.17
2018-05-09T05:44:48.151Z,19.22
2018-05-09T05:47:21.816Z,19.45
2018-05-09T05:49:55.368Z,19.55
2018-05-09T05:52:29.005Z,19.68
2018-05-09T05:55:02.547Z,19.77
2018-05-09T05:57:36.198Z,19.95
2018-05-09T06:00:09.798Z,20.03
2018-05-09T06:02:43.311Z,20.22
2018-05-09T06:05:16.868Z,20.31
2018-05-09T06:07:50.644Z,20.53
2018-05-09T06:10:24.210Z,20.76
2018-05-09T06:12:57.676Z,21.77
2018-05-09T06:15:31.346Z,23.34
2018-05-09T06:18:05.185Z,24.52
2018-05-09T06:20:38.699Z,25.74
2018-05-09T06:23:12.248Z,26.53
2018-05-09T06:25:45.943Z,25.70
2018-05-09T06:28:19.606Z,24.98
2018-05-09T06:30:53.223Z,26.24
2018-05-09T06:33:27.204Z,26.77
2018-05-09T06:36:00.758Z,27.49
2018-05-09T06:38:34.405Z,26.91
2018-05-09T06:41:08.049Z,27.04
2018-05-09T06:43:41.542Z,28.09
2018-05-09T06:46:15.237Z,27.83
2018-05-09T06:48:48.764Z,27.51
2018-05-09T06:51:22.499Z,27.92
2018-05-09T06:53:56.100Z,27.48
2018-05-09T06:56:30.033Z,27.76
2018-05-09T06:59:03.615Z,28.62
2018-05-09T07:01:37.320Z,27.71
2018-05-09T07:04:10.860Z,27.75
2018-05-09T07:06:44.920Z,27.62
2018-05-09T07:09:18.344Z,28.49
2018-05-09T07:11:51.851Z,28.75
2018-05-09T07:14:25.476Z,29.14
2018-05-09T07:16:59.104Z,29.53
2018-05-09T07:19:32.765Z,29.43
2018-05-09T07:22:06.329Z,28.98
2018-05-09T07:24:39.861Z,29.78
2018-05-09T07:27:13.497Z,29.98
2018-05-09T07:29:47.221Z,29.95
2018-05-09T07:32:20.823Z,30.61
2018-05-09T07:34:54.357Z,30.44
2018-05-09T07:37:27.927Z,30.12
2018-05-09T07:40:01.636Z,30.44
2018-05-09T07:42:35.124Z,30.49
2018-05-09T07:45:08.795Z,31.01
2018-05-09T07:47:42.631Z,29.51
2018-05-09T07:50:16.424Z,31.10
2018-05-09T07:52:50.080Z,32.35
2018-05-09T07:55:23.772Z,32.46
2018-05-09T07:57:57.604Z,31.94
2018-05-09T08:00:31.315Z,31.70
2018-05-09T08:03:04.904Z,31.33
2018-05-09T08:05:38.444Z,30.64
2018-05-09T08:08:12.056Z,32.78
2018-05-09T08:10:45.656Z,31.07
2018-05-09T08:13:19.159Z,30.05
2018-05-09T08:15:52.693Z,31.55
2018-05-09T08:18:26.283Z,31.45
2018-05-09T08:21:00.077Z,34.02
2018-05-09T08:23:33.699Z,33.21
2018-05-09T08:26:07.427Z,34.02
2018-05-09T08:28:41.229Z,30.93
2018-05-09T08:31:14.804Z,30.67
2018-05-09T08:33:48.597Z,30.69
2018-05-09T08:36:22.193Z,31.94
2018-05-09T08:38:55.816Z,31.50
2018-05-09T08:41:29.396Z,33.02
2018-05-09T08:44:03.005Z,34.94
2018-05-09T08:46:36.711Z,35.22
2018-05-09T08:49:10.382Z,34.06
2018-05-09T08:51:43.968Z,31.72
2018-05-09T08:54:17.468Z,32.49
2018-05-09T08:56:51.028Z,29.74
2018-05-09T08:59:24.680Z,32.13
2018-05-09T09:01:58.443Z,33.15
2018-05-09T09:04:32.016Z,33.75
2018-05-09T09:07:05.565Z,31.24
2018-05-09T09:09:39.106Z,32.41
2018-05-09T09:12:12.790Z,32.07
2018-05-09T09:14:46.428Z,35.79
2018-05-09T09:17:20.266Z,36.51
2018-05-09T09:19:53.835Z,32.50
2018-05-09T09:22:27.413Z,35.25
2018-05-09T09:25:01.084Z,34.49
2018-05-09T09:27:34.648Z,33.17
2018-05-09T09:30:08.264Z,33.53
2018-05-09T09:32:41.821Z,36.44
2018-05-09T09:35:15.622Z,36.05
2018-05-09T09:37:49.515Z,35.98
2018-05-09T09:40:23.020Z,35.31
2018-05-09T09:42:56.853Z,34.35
2018-05-09T09:45:30.401Z,34.10
2018-05-09T09:48:03.991Z,33.63
2018-05-09T09:50:37.794Z,33.98
2018-05-09T09:53:12.193Z,35.55
2018-05-09T09:55:45.913Z,35.83
2018-05-09T09:58:19.592Z,35.31
2018-05-09T10:00:53.206Z,34.80
2018-05-09T10:03:26.720Z,35.92
2018-05-09T10:06:00.359Z,34.67
2018-05-09T10:08:34.031Z,37.30
2018-05-09T10:11:07.517Z,35.58
2018-05-09T10:13:41.321Z,37.04
2018-05-09T10:16:14.905Z,34.23
2018-05-09T10:18:48.543Z,36.26
2018-05-09T10:21:22.060Z,35.84
2018-05-09T10:23:55.904Z,36.44
2018-05-09T10:26:29.464Z,36.12
2018-05-09T10:29:03.231Z,38.08
2018-05-09T10:31:37.054Z,33.93
2018-05-09T10:34:10.740Z,37.22
2018-05-09T10:36:44.209Z,37.47
2018-05-09T10:39:18.030Z,36.61
2018-05-09T10:41:51.535Z,36.29
2018-05-09T10:44:25.307Z,32.90
2018-05-09T10:46:59.084Z,34.89
2018-05-09T10:49:32.664Z,37.28
2018-05-09T10:52:06.171Z,36.31
2018-05-09T10:54:39.698Z,37.71
2018-05-09T10:57:13.234Z,35.29
2018-05-09T10:59:46.885Z,39.31
2018-05-09T11:02:20.454Z,39.00
2018-05-09T11:04:54.016Z,36.57
2018-05-09T11:07:27.543Z,38.08
2018-05-09T11:10:01.147Z,36.41
2018-05-09T11:12:34.662Z,33.92
2018-05-09T11:15:08.188Z,35.08
2018-05-09T11:17:41.887Z,33.65
2018-05-09T11:20:15.635Z,37.35
2018-05-09T11:22:49.167Z,36.63
2018-05-09T11:25:22.812Z,35.73
2018-05-09T11:27:56.554Z,35.88
2018-05-09T11:30:30.343Z,32.13
2018-05-09T11:33:04.152Z,33.96
2018-05-09T11:35:37.662Z,35.26
2018-05-09T11:38:11.216Z,33.15
2018-05-09T11:40:44.867Z,34.03
2018-05-09T11:43:18.344Z,34.64
2018-05-09T11:45:52.020Z,33.90
2018-05-09T11:48:25.799Z,32.59
2018-05-09T11:50:59.499Z,30.01
2018-05-09T11:53:33.259Z,30.15
2018-05-09T11:56:06.812Z,31.05
2018-05-09T11:58:40.500Z,29.79
2018-05-09T12:01:14.121Z,29.75
2018-05-09T12:03:47.861Z,28.91
2018-05-09T12:06:21.643Z,29.53
2018-05-09T12:08:55.370Z,29.09
2018-05-09T12:11:28.955Z,29.13
2018-05-09T12:14:02.530Z,28.97
2018-05-09T12:16:44.512Z,28.85
2018-05-09T12:19:18.101Z,28.36
2018-05-09T12:21:51.952Z,28.58
2018-05-09T12:24:25.515Z,28.23
2018-05-09T12:26:59.128Z,28.02
2018-05-09T12:29:32.640Z,28.10
2018-05-09T12:32:06.441Z,28.24
2018-05-09T12:34:40.233Z,28.10
2018-05-09T12:37:13.781Z,27.83
2018-05-09T12:39:47.561Z,27.66
2018-05-09T12:42:21.095Z,27.19
2018-05-09T12:44:54.880Z,28.15
2018-05-09T12:47:28.546Z,28.70
2018-05-09T12:50:02.295Z,28.45
2018-05-09T12:52:36.018Z,28.62
2018-05-09T12:55:09.548Z,28.13
2018-05-09T12:57:43.194Z,28.19
2018-05-09T13:00:17.039Z,28.08
2018-05-09T13:02:50.627Z,28.29
2018-05-09T13:05:24.144Z,28.11
2018-05-09T13:07:57.865Z,27.99
2018-05-09T13:10:31.369Z,28.06
2018-05-09T13:13:04.963Z,27.99
2018-05-09T13:18:11.454Z,27.98
2018-05-09T13:20:44.933Z,27.94
2018-05-09T13:23:18.628Z,27.48
2018-05-09T13:25:52.254Z,27.56
2018-05-09T13:28:25.811Z,27.32
2018-05-09T13:30:59.567Z,27.13
2018-05-09T13:33:33.292Z,27.11
2018-05-09T13:36:06.998Z,27.28
2018-05-09T13:38:40.666Z,27.58
2018-05-09T13:41:14.352Z,27.76
2018-05-09T13:43:48.022Z,27.89
2018-05-09T13:46:21.665Z,27.99
2018-05-09T13:48:55.432Z,27.91
2018-05-09T13:51:29.063Z,27.96
2018-05-09T13:54:02.672Z,27.86
2018-05-09T13:56:36.200Z,27.88
2018-05-09T13:59:09.776Z,27.75
2018-05-09T14:01:43.328Z,27.83
2018-05-09T14:04:16.909Z,28.06
2018-05-09T14:06:50.412Z,28.26
2018-05-09T14:09:24.217Z,28.23
2018-05-09T14:11:57.782Z,28.30
2018-05-09T14:14:31.476Z,28.53
2018-05-09T14:17:05.001Z,29.04
2018-05-09T14:19:38.754Z,29.62
2018-05-09T14:22:12.855Z,30.59
2018-05-09T14:24:46.612Z,31.08
2018-05-09T14:27:20.251Z,31.69
2018-05-09T14:29:54.091Z,32.20
2018-05-09T14:32:27.886Z,32.54
2018-05-09T14:35:01.405Z,32.97
2018-05-09T14:37:34.926Z,32.96
2018-05-09T14:40:08.516Z,33.65
2018-05-09T14:42:42.130Z,33.73
2018-05-09T14:45:15.800Z,33.49
2018-05-09T14:47:49.421Z,33.40
2018-05-09T14:50:22.980Z,33.97
2018-05-09T14:52:56.487Z,34.03
2018-05-09T14:55:30.192Z,33.60
2018-05-09T14:58:03.999Z,33.54
2018-05-09T15:00:37.815Z,32.97
2018-05-09T15:03:11.430Z,33.56
2018-05-09T15:05:45.244Z,33.59
2018-05-09T15:08:18.943Z,31.98
2018-05-09T15:10:52.678Z,32.30
2018-05-09T15:13:26.266Z,31.35
2018-05-09T15:15:59.890Z,29.48
2018-05-09T15:18:33.506Z,29.69
2018-05-09T15:21:07.062Z,29.33
2018-05-09T15:23:40.752Z,29.08
2018-05-09T15:26:14.295Z,28.89
2018-05-09T15:28:47.913Z,28.76
2018-05-09T15:31:21.539Z,28.41
2018-05-09T15:33:55.063Z,28.39
2018-05-09T15:36:28.721Z,27.79
2018-05-09T15:39:02.344Z,28.12
2018-05-09T15:41:35.978Z,28.33
2018-05-09T15:44:09.665Z,28.41
2018-05-09T15:46:43.366Z,28.57
2018-05-09T15:49:16.950Z,28.21
2018-05-09T15:51:50.537Z,28.15
2018-05-09T15:54:24.189Z,27.94
2018-05-09T15:56:57.834Z,27.80
2018-05-09T15:59:31.509Z,27.71
2018-05-09T16:02:05.101Z,27.72
2018-05-09T16:04:38.638Z,27.48
2018-05-09T16:07:12.771Z,27.21
2018-05-09T16:09:46.572Z,27.22
2018-05-09T16:12:20.144Z,27.08
2018-05-09T16:14:53.662Z,26.92
2018-05-09T16:17:27.245Z,26.89
2018-05-09T16:20:00.782Z,26.76
2018-05-09T16:22:34.713Z,26.69
2018-05-09T16:25:08.397Z,26.72
2018-05-09T16:27:41.918Z,26.80
2018-05-09T16:30:15.510Z,26.65
2018-05-09T16:32:49.066Z,26.38
2018-05-09T16:35:22.795Z,26.36
2018-05-09T16:37:56.685Z,26.28
2018-05-09T16:40:30.413Z,26.21
2018-05-09T16:43:04.159Z,25.97
2018-05-09T16:45:37.819Z,26.08
2018-05-09T16:48:11.610Z,25.90
2018-05-09T16:50:45.356Z,25.52
2018-05-09T16:53:18.936Z,25.46
2018-05-09T16:55:53.973Z,25.56
2018-05-09T16:58:27.751Z,25.53
2018-05-09T17:01:01.267Z,25.52
2018-05-09T17:03:34.924Z,25.29
2018-05-09T17:06:08.771Z,25.17
2018-05-09T17:08:42.530Z,24.90
2018-05-09T17:11:16.353Z,24.85
2018-05-09T17:13:50.053Z,24.85
2018-05-09T17:16:23.800Z,24.81
2018-05-09T17:18:57.500Z,24.67
2018-05-09T17:21:43.242Z,24.70
2018-05-09T17:24:17.337Z,24.61
2018-05-09T17:26:51.050Z,24.45
2018-05-09T17:29:24.718Z,24.61
2018-05-09T17:31:58.238Z,24.47
2018-05-09T17:34:31.906Z,24.25
2018-05-09T17:37:05.478Z,24.21
2018-05-09T17:39:39.257Z,24.22
2018-05-09T17:42:12.791Z,24.32
2018-05-09T17:44:46.380Z,24.28
2018-05-09T17:47:21.506Z,24.34
2018-05-09T17:49:55.144Z,24.55
2018-05-09T17:52:29.104Z,24.54
2018-05-09T17:55:02.615Z,24.53
2018-05-09T17:57:36.344Z,24.50
2018-05-09T18:00:09.849Z,24.49
2018-05-09T18:02:43.664Z,24.29
2018-05-09T18:05:17.429Z,24.30
2018-05-09T18:07:51.140Z,24.09
2018-05-09T18:10:24.674Z,24.04
2018-05-09T18:12:58.288Z,23.88
2018-05-09T18:15:31.924Z,23.95
2018-05-09T18:18:05.568Z,23.91
2018-05-09T18:20:39.199Z,23.65
2018-05-09T18:23:12.901Z,23.63
2018-05-09T18:25:46.561Z,23.41
2018-05-09T18:28:20.180Z,23.21
2018-05-09T18:30:53.691Z,23.13
2018-05-09T18:33:27.307Z,22.98
2018-05-09T18:36:01.056Z,22.82
2018-05-09T18:38:34.691Z,22.76
2018-05-09T18:41:08.215Z,22.73
2018-05-09T18:43:41.717Z,22.76
2018-05-09T18:46:15.372Z,22.75
2018-05-09T18:48:48.927Z,22.85
2018-05-09T18:51:22.517Z,22.71
2018-05-09T18:53:56.235Z,22.60
2018-05-09T18:56:29.873Z,22.47
2018-05-09T18:59:03.510Z,22.49
2018-05-09T19:01:37.139Z,22.54
2018-05-09T19:04:10.732Z,22.64
2018-05-09T19:06:44.304Z,22.68
2018-05-09T19:09:17.939Z,22.57
2018-05-09T19:11:51.479Z,22.56
2018-05-09T19:14:25.038Z,22.53
2018-05-09T19:16:58.579Z,22.50
2018-05-09T19:19:32.419Z,22.38
2018-05-09T19:22:06.050Z,22.35
2018-05-09T19:24:39.684Z,22.34
2018-05-09T19:27:13.244Z,22.27
2018-05-09T19:29:46.784Z,22.07
2018-05-09T19:32:20.448Z,21.95
2018-05-09T19:34:54.192Z,21.81
2018-05-09T19:37:27.735Z,21.68
2018-05-09T19:40:01.261Z,21.63
2018-05-09T19:42:34.840Z,21.60
2018-05-09T19:45:08.365Z,21.79
2018-05-09T19:47:42.138Z,21.73
2018-05-09T19:50:15.764Z,21.64
2018-05-09T19:52:49.469Z,21.59
2018-05-09T19:55:23.168Z,21.60
2018-05-09T19:57:56.758Z,21.64
2018-05-09T20:00:30.280Z,21.91
2018-05-09T20:03:03.962Z,21.97
2018-05-09T20:05:37.691Z,22.03
2018-05-09T20:08:11.464Z,22.06
2018-05-09T20:10:45.348Z,21.94
2018-05-09T20:13:19.076Z,21.79
2018-05-09T20:15:52.724Z,21.65
2018-05-09T20:18:26.404Z,21.53
2018-05-09T20:21:00.154Z,21.52
2018-05-09T20:23:33.875Z,21.43
2018-05-09T20:26:07.572Z,21.53
2018-05-09T20:28:47.014Z,21.62
2018-05-09T20:31:38.397Z,21.60
2018-05-09T20:34:12.150Z,21.58
2018-05-09T20:36:45.782Z,21.62
2018-05-09T20:39:19.435Z,21.64
2018-05-09T20:41:53.069Z,21.59
2018-05-09T20:44:26.764Z,21.59
2018-05-09T20:47:00.387Z,21.65
2018-05-09T20:49:34.172Z,21.62
2018-05-09T20:52:07.792Z,21.84
2018-05-09T20:54:41.354Z,21.94
2018-05-09T20:57:14.983Z,22.01
2018-05-09T20:59:48.623Z,21.99
2018-05-09T21:02:22.223Z,21.85
2018-05-09T21:04:55.819Z,21.62
2018-05-09T21:07:29.332Z,21.49
2018-05-09T21:10:02.876Z,21.25
2018-05-09T21:12:36.334Z,21.21
2018-05-09T21:15:10.112Z,21.09
2018-05-09T21:17:43.690Z,21.08
2018-05-09T21:20:17.370Z,21.01
2018-05-09T21:22:50.881Z,20.99
2018-05-09T21:25:24.518Z,20.96
2018-05-09T21:27:58.308Z,20.94
2018-05-09T21:30:31.825Z,20.95
2018-05-09T21:33:05.479Z,20.97
2018-05-09T21:35:39.207Z,20.96
2018-05-09T21:38:12.940Z,20.93
2018-05-09T21:40:46.569Z,20.86
2018-05-09T21:43:20.312Z,20.75
2018-05-09T21:45:53.840Z,20.64
2018-05-09T21:48:27.622Z,20.65
2018-05-09T21:51:01.425Z,20.60
2018-05-09T21:53:35.261Z,20.54
2018-05-09T21:56:08.762Z,20.44
2018-05-09T21:58:42.276Z,20.39
2018-05-09T22:01:16.035Z,20.34
2018-05-09T22:03:49.504Z,20.32
2018-05-09T22:06:23.100Z,20.33
2018-05-09T22:08:56.747Z,20.37
2018-05-09T22:11:30.420Z,20.30
2018-05-09T22:14:04.167Z,20.27
2018-05-09T22:16:38.062Z,20.19
2018-05-09T22:19:11.828Z,20.19
2018-05-09T22:21:45.316Z,20.16
2018-05-09T22:24:19.177Z,20.18
2018-05-09T22:26:52.808Z,20.16
2018-05-09T22:29:26.422Z,20.11
2018-05-09T22:32:00.147Z,20.05
2018-05-09T22:34:33.903Z,19.96
2018-05-09T22:37:24.194Z,19.89
2018-05-09T22:39:57.971Z,19.83
2018-05-09T22:42:31.540Z,19.79
2018-05-09T22:45:05.160Z,19.78
2018-05-09T22:47:38.701Z,19.74
2018-05-09T22:50:12.239Z,19.69
2018-05-09T22:52:45.850Z,19.62
2018-05-09T22:55:19.566Z,19.62
2018-05-09T22:57:53.438Z,19.56
2018-05-09T23:00:27.210Z,19.51
2018-05-09T23:03:00.816Z,19.52
2018-05-09T23:05:34.931Z,19.49
2018-05-09T23:08:08.486Z,19.52
2018-05-09T23:10:42.290Z,19.35
2018-05-09T23:13:15.839Z,19.28
2018-05-09T23:15:49.578Z,19.20
2018-05-09T23:18:23.132Z,19.12
2018-05-09T23:20:56.808Z,19.10
2018-05-09T23:23:30.639Z,19.21
2018-05-09T23:26:04.301Z,19.04
2018-05-09T23:28:37.880Z,19.06
2018-05-09T23:31:11.520Z,18.99
2018-05-09T23:33:45.143Z,18.76
2018-05-09T23:36:18.780Z,18.63
2018-05-09T23:38:52.396Z,18.43
2018-05-09T23:41:26.118Z,18.32
2018-05-09T23:43:59.738Z,18.26
2018-05-09T23:46:33.321Z,18.15
2018-05-09T23:49:06.969Z,18.10
2018-05-09T23:51:40.475Z,18.08
2018-05-09T23:54:14.001Z,18.08
2018-05-09T23:56:47.648Z,17.97
2018-05-09T23:59:21.391Z,17.89
